Idaho Falls, Idaho
Current Conditions -  °F | °C
As of 6:53 PM on Saturday 25 Oct 2014 (Local Time) from KIDA Reporting Station
Scattered Clouds Scattered Clouds  
Wind Chill: 19°   Ceiling: Unl
Heat Index: 19°   Visibility: 10mi
Dew Point:   Wind: 14mph
Humidity: 30%   Direction: 190°S
Pressure: 29.87"   Gusts: NA
Location:  43.49°N, 112.04°W
Report Text: KIDA 260053Z 19012KT 10SM SCT100 19/01 A2987 RMK AO2 SLP098 T01890011
Loading
Personal Weather Stations






























Interactive Weather Map
Tropical Storm Tracking
New forecast layout! Learn more

10-Day Weather Forecast

Advertisements
Track Severe Weather on mobile